createdAt,value
2018-05-29T00:04:48.075Z,83.80
2018-05-29T00:09:51.349Z,80.80
2018-05-29T00:14:54.607Z,82.90
2018-05-29T00:19:57.955Z,85.30
2018-05-29T00:25:01.211Z,85.30
2018-05-29T00:30:04.470Z,84.30
2018-05-29T00:35:07.727Z,83.00
2018-05-29T00:40:11.009Z,85.30
2018-05-29T00:45:15.019Z,87.30
2018-05-29T00:50:18.279Z,87.00
2018-05-29T00:55:33.160Z,85.70
2018-05-29T01:00:36.427Z,83.20
2018-05-29T01:05:40.464Z,89.50
2018-05-29T01:10:43.728Z,88.90
2018-05-29T01:15:46.991Z,90.00
2018-05-29T01:20:50.258Z,89.90
2018-05-29T01:25:53.519Z,89.20
2018-05-29T01:30:56.795Z,90.40
2018-05-29T01:36:00.059Z,90.50
2018-05-29T01:41:03.318Z,89.20
2018-05-29T01:46:07.350Z,90.50
2018-05-29T01:51:10.610Z,90.60
2018-05-29T01:56:13.872Z,90.00
2018-05-29T02:01:17.891Z,91.20
2018-05-29T02:06:21.174Z,91.00
2018-05-29T02:11:24.478Z,92.40
2018-05-29T02:16:27.734Z,92.00
2018-05-29T02:21:30.998Z,91.90
2018-05-29T02:26:34.258Z,92.50
2018-05-29T02:31:37.524Z,92.60
2018-05-29T02:36:40.787Z,91.80
2018-05-29T02:41:44.068Z,91.90
2018-05-29T02:46:48.074Z,90.70
2018-05-29T02:51:52.111Z,92.20
2018-05-29T02:56:55.376Z,92.10
2018-05-29T03:01:58.655Z,92.90
2018-05-29T03:07:01.924Z,93.70
2018-05-29T03:12:05.212Z,93.50
2018-05-29T03:17:08.478Z,93.30
2018-05-29T03:22:11.763Z,92.90
2018-05-29T03:27:15.791Z,93.70
2018-05-29T03:32:19.051Z,93.60
2018-05-29T03:37:22.323Z,93.90
2018-05-29T03:42:25.606Z,93.60
2018-05-29T03:47:29.634Z,93.30
2018-05-29T03:52:32.915Z,93.30
2018-05-29T03:57:36.177Z,93.00
2018-05-29T04:02:39.447Z,92.90
2018-05-29T04:07:43.485Z,93.00
2018-05-29T04:12:46.766Z,92.60
2018-05-29T04:17:50.030Z,93.90
2018-05-29T04:22:53.299Z,92.50
2018-05-29T04:27:58.155Z,91.70
2018-05-29T04:33:01.433Z,91.60
2018-05-29T04:38:04.681Z,91.10
2018-05-29T04:43:08.038Z,91.90
2018-05-29T04:48:11.319Z,90.00
2018-05-29T04:53:14.588Z,90.00
2018-05-29T04:58:18.615Z,89.70
2018-05-29T05:03:22.767Z,89.70
2018-05-29T05:08:26.052Z,90.10
2018-05-29T05:13:29.327Z,87.30
2018-05-29T05:18:32.618Z,86.80
2018-05-29T05:23:35.916Z,87.40
2018-05-29T05:28:39.172Z,85.80
2018-05-29T05:33:42.436Z,85.10
2018-05-29T05:38:45.716Z,84.60
2018-05-29T05:43:49.067Z,82.40
2018-05-29T05:48:52.343Z,80.00
2018-05-29T05:53:55.631Z,80.60
2018-05-29T05:58:58.899Z,78.90
2018-05-29T06:04:02.160Z,79.50
2018-05-29T06:09:05.443Z,79.00
2018-05-29T06:14:08.739Z,76.40
2018-05-29T06:19:13.023Z,70.80
2018-05-29T06:24:16.322Z,70.80
2018-05-29T06:29:19.550Z,70.40
2018-05-29T06:34:23.592Z,70.80
2018-05-29T06:39:26.859Z,68.60
2018-05-29T06:44:30.163Z,69.10
2018-05-29T06:49:33.436Z,66.80
2018-05-29T06:54:36.715Z,64.10
2018-05-29T06:59:39.982Z,63.50
2018-05-29T07:04:44.603Z,55.10
2018-05-29T07:09:48.791Z,55.00
2018-05-29T07:14:52.051Z,58.10
2018-05-29T07:19:55.359Z,54.80
2018-05-29T07:24:59.571Z,56.60
2018-05-29T07:30:02.827Z,55.80
2018-05-29T07:35:06.099Z,51.00
2018-05-29T07:40:09.351Z,53.10
2018-05-29T07:45:12.680Z,48.60
2018-05-29T07:50:15.925Z,49.50
2018-05-29T07:55:19.203Z,48.50
2018-05-29T08:00:22.470Z,45.70
2018-05-29T08:05:25.727Z,46.60
2018-05-29T08:10:28.989Z,47.50
2018-05-29T08:15:32.298Z,44.20
2018-05-29T08:20:35.580Z,44.10
2018-05-29T08:25:38.855Z,45.90
2018-05-29T08:30:42.123Z,45.80
2018-05-29T08:35:45.389Z,47.00
2018-05-29T08:40:48.652Z,46.00
2018-05-29T08:45:53.146Z,46.40
2018-05-29T08:50:56.416Z,43.30
2018-05-29T08:55:59.681Z,43.00
2018-05-29T09:01:02.935Z,43.00
2018-05-29T09:06:07.099Z,39.00
2018-05-29T09:11:10.357Z,40.10
2018-05-29T09:16:13.621Z,40.10
2018-05-29T09:21:16.872Z,40.40
2018-05-29T09:26:20.143Z,41.40
2018-05-29T09:31:23.432Z,41.30
2018-05-29T09:36:26.684Z,40.40
2018-05-29T09:41:29.978Z,35.00
2018-05-29T09:46:33.210Z,35.30
2018-05-29T09:51:36.463Z,35.60
2018-05-29T09:56:40.671Z,36.50
2018-05-29T10:01:43.910Z,35.10
2018-05-29T10:06:47.158Z,35.00
2018-05-29T10:11:50.421Z,32.30
2018-05-29T10:16:53.678Z,34.30
2018-05-29T10:21:56.951Z,37.30
2018-05-29T10:27:00.213Z,36.00
2018-05-29T10:32:03.482Z,36.40
2018-05-29T10:37:07.538Z,29.70
2018-05-29T10:42:10.795Z,29.60
2018-05-29T10:47:14.055Z,29.40
2018-05-29T10:52:18.216Z,34.20
2018-05-29T10:57:21.463Z,30.70
2018-05-29T11:02:24.714Z,33.30
2018-05-29T11:07:28.020Z,37.50
2018-05-29T11:12:31.326Z,30.30
2018-05-29T11:17:34.527Z,32.60
2018-05-29T11:22:37.775Z,30.00
2018-05-29T11:27:41.032Z,29.30
2018-05-29T11:32:44.282Z,33.70
2018-05-29T11:37:47.522Z,29.60
2018-05-29T11:42:51.539Z,31.60
2018-05-29T11:47:54.844Z,31.70
2018-05-29T11:52:58.863Z,32.40
2018-05-29T11:58:02.116Z,32.40
2018-05-29T12:03:05.379Z,32.90
2018-05-29T12:08:09.412Z,30.40
2018-05-29T12:13:12.658Z,30.30
2018-05-29T12:18:15.911Z,29.70
2018-05-29T12:23:19.160Z,34.70
2018-05-29T12:28:22.413Z,33.60
2018-05-29T12:33:25.662Z,35.30
2018-05-29T12:38:28.919Z,36.80
2018-05-29T12:43:33.071Z,36.60
2018-05-29T12:48:36.444Z,34.00
2018-05-29T12:53:39.698Z,30.90
2018-05-29T12:58:42.955Z,35.50
2018-05-29T13:03:46.230Z,31.00
2018-05-29T13:08:49.463Z,32.30
2018-05-29T13:13:52.724Z,32.60
2018-05-29T13:18:55.971Z,37.20
2018-05-29T13:23:59.242Z,36.60
2018-05-29T13:29:02.495Z,38.70
2018-05-29T13:34:05.771Z,39.10
2018-05-29T13:39:09.096Z,40.00
2018-05-29T13:44:12.336Z,40.30
2018-05-29T13:49:15.685Z,41.60
2018-05-29T13:54:18.884Z,43.00
2018-05-29T13:59:22.148Z,45.30
2018-05-29T14:04:25.415Z,50.90
2018-05-29T14:09:28.666Z,73.30
2018-05-29T14:14:31.948Z,99.90
2018-05-29T14:19:35.972Z,99.90
2018-05-29T14:24:39.996Z,99.90
2018-05-29T14:29:44.015Z,99.90
2018-05-29T14:34:47.291Z,99.90
2018-05-29T14:39:50.544Z,99.90
2018-05-29T14:44:53.807Z,99.90
2018-05-29T14:49:57.191Z,99.90
2018-05-29T14:55:00.454Z,99.90
2018-05-29T15:00:03.735Z,99.90
2018-05-29T15:05:07.011Z,99.90
2018-05-29T15:10:10.267Z,99.90
2018-05-29T15:15:13.606Z,99.90
2018-05-29T15:20:16.871Z,99.90
2018-05-29T15:25:20.156Z,99.90
2018-05-29T15:30:23.417Z,99.90
2018-05-29T15:35:27.452Z,99.90
2018-05-29T15:40:30.711Z,99.90
2018-05-29T15:45:33.966Z,99.90
2018-05-29T15:50:37.474Z,99.90
2018-05-29T15:55:40.747Z,99.90
2018-05-29T16:00:44.010Z,99.90
2018-05-29T16:05:47.303Z,99.90
2018-05-29T16:10:50.835Z,99.90
2018-05-29T16:15:54.103Z,99.90
2018-05-29T16:20:57.394Z,99.90
2018-05-29T16:26:00.652Z,99.90
2018-05-29T16:31:03.923Z,99.90
2018-05-29T16:36:07.204Z,99.90
2018-05-29T16:41:10.483Z,99.90
2018-05-29T16:46:13.756Z,99.90
2018-05-29T16:51:17.047Z,99.90
2018-05-29T16:56:20.312Z,99.90
2018-05-29T17:01:23.609Z,99.90
2018-05-29T17:06:26.856Z,99.90
2018-05-29T17:11:30.147Z,99.90
2018-05-29T17:16:33.415Z,99.90
2018-05-29T17:21:36.724Z,99.90
2018-05-29T17:26:40.019Z,99.90
2018-05-29T17:31:43.301Z,99.90
2018-05-29T17:36:46.570Z,99.90
2018-05-29T17:41:50.620Z,99.90
2018-05-29T17:46:53.900Z,99.90
2018-05-29T17:51:57.178Z,99.90
2018-05-29T17:57:01.216Z,99.90
2018-05-29T18:02:05.262Z,99.90
2018-05-29T18:07:08.510Z,99.90
2018-05-29T18:12:11.770Z,99.90
2018-05-29T18:17:15.812Z,99.90
2018-05-29T18:22:19.096Z,99.90
2018-05-29T18:27:23.113Z,99.90
2018-05-29T18:32:26.395Z,99.90
2018-05-29T18:37:29.675Z,99.90
2018-05-29T18:42:32.959Z,99.90
2018-05-29T18:47:37.007Z,99.90
2018-05-29T18:52:40.347Z,99.90
2018-05-29T18:57:43.602Z,99.90
2018-05-29T19:02:47.627Z,99.90
2018-05-29T19:07:51.655Z,99.90
2018-05-29T19:12:55.689Z,99.90
2018-05-29T19:17:58.975Z,99.90
2018-05-29T19:23:03.096Z,99.90
2018-05-29T19:28:06.335Z,99.90
2018-05-29T19:33:09.611Z,99.90
2018-05-29T19:38:12.891Z,99.90
2018-05-29T19:43:16.152Z,99.90
2018-05-29T19:48:19.423Z,99.90
2018-05-29T19:53:22.766Z,99.90
2018-05-29T19:58:26.800Z,99.90
2018-05-29T20:03:30.845Z,99.90
2018-05-29T20:08:34.102Z,99.90
2018-05-29T20:13:37.422Z,99.90
2018-05-29T20:18:40.691Z,99.90
2018-05-29T20:23:43.959Z,99.90
2018-05-29T20:28:47.231Z,99.90
2018-05-29T20:33:50.504Z,99.90
2018-05-29T20:38:53.766Z,99.90
2018-05-29T20:43:57.917Z,99.90
2018-05-29T20:49:01.195Z,99.90
2018-05-29T20:54:05.279Z,99.90
2018-05-29T20:59:08.542Z,99.90
2018-05-29T21:04:11.892Z,99.90
2018-05-29T21:09:15.160Z,99.90
2018-05-29T21:14:18.468Z,99.90
2018-05-29T21:19:21.739Z,99.90
2018-05-29T21:24:25.091Z,99.90
2018-05-29T21:29:29.127Z,99.90
2018-05-29T21:34:32.435Z,99.90
2018-05-29T21:39:36.449Z,99.90
2018-05-29T21:44:40.473Z,99.90
2018-05-29T21:49:44.595Z,99.90
2018-05-29T21:54:47.948Z,99.90
2018-05-29T21:59:51.346Z,99.90
2018-05-29T22:04:54.669Z,99.90
2018-05-29T22:09:57.943Z,99.90
2018-05-29T22:15:01.981Z,99.90
2018-05-29T22:20:05.239Z,99.90
2018-05-29T22:25:08.499Z,99.90
2018-05-29T22:30:12.520Z,99.90
2018-05-29T22:35:16.531Z,99.90
2018-05-29T22:40:20.563Z,99.90
2018-05-29T22:45:23.820Z,99.90
2018-05-29T22:50:27.104Z,99.90
2018-05-29T22:55:30.455Z,99.90
2018-05-29T23:00:33.702Z,99.90
2018-05-29T23:05:37.732Z,99.90
2018-05-29T23:10:40.992Z,99.90
2018-05-29T23:15:44.246Z,99.90
2018-05-29T23:20:48.352Z,99.90
2018-05-29T23:25:51.665Z,99.90
2018-05-29T23:30:54.920Z,99.90
2018-05-29T23:35:58.172Z,99.90
2018-05-29T23:41:01.428Z,99.90
2018-05-29T23:46:04.699Z,99.90
2018-05-29T23:51:07.964Z,99.90
2018-05-29T23:56:11.227Z,99.90
